sensor_id;sensor_type;location;lat;lon;timestamp;pressure;altitude;pressure_sealevel;temperature;humidity
71666;BME280;59503;53.486;10.196;2022-10-31T00:01:12;101909.50;;;9.48;100.00
71666;BME280;59503;53.486;10.196;2022-10-31T00:03:38;101927.88;;;9.51;100.00
71666;BME280;59503;53.486;10.196;2022-10-31T00:06:04;101926.91;;;9.47;100.00
71666;BME280;59503;53.486;10.196;2022-10-31T00:08:29;101928.38;;;9.36;100.00
71666;BME280;59503;53.486;10.196;2022-10-31T00:10:54;101926.78;;;9.35;100.00
71666;BME280;59503;53.486;10.196;2022-10-31T00:13:20;101932.88;;;9.32;100.00
71666;BME280;59503;53.486;10.196;2022-10-31T00:15:45;101932.41;;;9.30;100.00
71666;BME280;59503;53.486;10.196;2022-10-31T00:18:11;101920.91;;;9.24;100.00
71666;BME280;59503;53.486;10.196;2022-10-31T00:20:37;101935.75;;;9.27;100.00
71666;BME280;59503;53.486;10.196;2022-10-31T00:23:03;101936.75;;;9.22;100.00
71666;BME280;59503;53.486;10.196;2022-10-31T00:25:33;101933.38;;;9.25;100.00
71666;BME280;59503;53.486;10.196;2022-10-31T00:28:00;101928.44;;;9.19;100.00
71666;BME280;59503;53.486;10.196;2022-10-31T00:30:25;101934.63;;;9.28;100.00
71666;BME280;59503;53.486;10.196;2022-10-31T00:32:51;101929.84;;;9.25;100.00
71666;BME280;59503;53.486;10.196;2022-10-31T00:35:16;101931.44;;;9.26;100.00
71666;BME280;59503;53.486;10.196;2022-10-31T00:37:42;101934.03;;;9.22;100.00
71666;BME280;59503;53.486;10.196;2022-10-31T00:40:08;101924.44;;;9.25;100.00
71666;BME280;59503;53.486;10.196;2022-10-31T00:42:33;101929.66;;;9.38;100.00
71666;BME280;59503;53.486;10.196;2022-10-31T00:44:59;101937.94;;;9.42;100.00
71666;BME280;59503;53.486;10.196;2022-10-31T00:47:24;101936.22;;;9.37;100.00
71666;BME280;59503;53.486;10.196;2022-10-31T00:49:50;101932.56;;;9.25;100.00
71666;BME280;59503;53.486;10.196;2022-10-31T00:52:15;101932.56;;;9.25;100.00
71666;BME280;59503;53.486;10.196;2022-10-31T00:54:40;101930.50;;;9.22;100.00
71666;BME280;59503;53.486;10.196;2022-10-31T00:57:06;101916.94;;;9.22;100.00
71666;BME280;59503;53.486;10.196;2022-10-31T00:59:31;101928.72;;;9.26;100.00
71666;BME280;59503;53.486;10.196;2022-10-31T01:01:57;101925.84;;;9.31;100.00
71666;BME280;59503;53.486;10.196;2022-10-31T01:04:22;101936.69;;;9.31;100.00
71666;BME280;59503;53.486;10.196;2022-10-31T01:06:48;101930.00;;;9.28;100.00
71666;BME280;59503;53.486;10.196;2022-10-31T01:09:13;101926.63;;;9.31;100.00
71666;BME280;59503;53.486;10.196;2022-10-31T01:11:38;101940.22;;;9.31;100.00
71666;BME280;59503;53.486;10.196;2022-10-31T01:14:04;101938.16;;;9.20;100.00
71666;BME280;59503;53.486;10.196;2022-10-31T01:16:29;101940.88;;;9.20;100.00
71666;BME280;59503;53.486;10.196;2022-10-31T01:18:55;101943.75;;;9.15;100.00
71666;BME280;59503;53.486;10.196;2022-10-31T01:21:23;101955.75;;;9.14;100.00
71666;BME280;59503;53.486;10.196;2022-10-31T01:23:50;101953.66;;;9.11;100.00
71666;BME280;59503;53.486;10.196;2022-10-31T01:26:21;101955.09;;;9.08;100.00
71666;BME280;59503;53.486;10.196;2022-10-31T01:28:52;101952.88;;;9.02;100.00
71666;BME280;59503;53.486;10.196;2022-10-31T01:31:19;101956.09;;;9.04;100.00
71666;BME280;59503;53.486;10.196;2022-10-31T01:33:45;101959.25;;;8.97;100.00
71666;BME280;59503;53.486;10.196;2022-10-31T01:38:41;101969.00;;;8.90;100.00
71666;BME280;59503;53.486;10.196;2022-10-31T01:41:06;101976.97;;;8.86;100.00
71666;BME280;59503;53.486;10.196;2022-10-31T01:46:19;101968.53;;;8.70;100.00
71666;BME280;59503;53.486;10.196;2022-10-31T01:48:46;101968.69;;;8.65;100.00
71666;BME280;59503;53.486;10.196;2022-10-31T01:51:13;101974.09;;;8.65;100.00
71666;BME280;59503;53.486;10.196;2022-10-31T01:53:40;101971.88;;;8.59;100.00
71666;BME280;59503;53.486;10.196;2022-10-31T01:56:07;101980.81;;;8.59;100.00
71666;BME280;59503;53.486;10.196;2022-10-31T01:58:33;101978.59;;;8.61;100.00
71666;BME280;59503;53.486;10.196;2022-10-31T02:01:01;101981.78;;;8.63;100.00
71666;BME280;59503;53.486;10.196;2022-10-31T02:03:28;101986.22;;;8.59;100.00
71666;BME280;59503;53.486;10.196;2022-10-31T02:05:55;101992.63;;;8.63;100.00
71666;BME280;59503;53.486;10.196;2022-10-31T02:08:26;101996.91;;;8.64;100.00
71666;BME280;59503;53.486;10.196;2022-10-31T02:10:53;101987.66;;;8.57;100.00
71666;BME280;59503;53.486;10.196;2022-10-31T02:13:19;101988.28;;;8.54;100.00
71666;BME280;59503;53.486;10.196;2022-10-31T02:15:49;101998.81;;;8.55;100.00
71666;BME280;59503;53.486;10.196;2022-10-31T02:18:17;102001.50;;;8.55;100.00
71666;BME280;59503;53.486;10.196;2022-10-31T02:26:31;101997.69;;;8.48;100.00
71666;BME280;59503;53.486;10.196;2022-10-31T02:34:05;102008.38;;;8.44;100.00
71666;BME280;59503;53.486;10.196;2022-10-31T02:37:08;102007.56;;;8.44;100.00
71666;BME280;59503;53.486;10.196;2022-10-31T02:39:44;102013.94;;;8.39;100.00
71666;BME280;59503;53.486;10.196;2022-10-31T02:42:18;102009.94;;;8.37;100.00
71666;BME280;59503;53.486;10.196;2022-10-31T02:47:41;102026.53;;;8.44;100.00
71666;BME280;59503;53.486;10.196;2022-10-31T02:50:29;102012.50;;;8.50;100.00
71666;BME280;59503;53.486;10.196;2022-10-31T02:52:55;102025.16;;;8.63;100.00
71666;BME280;59503;53.486;10.196;2022-10-31T03:00:21;102023.88;;;8.87;100.00
71666;BME280;59503;53.486;10.196;2022-10-31T03:03:02;102028.00;;;8.93;100.00
71666;BME280;59503;53.486;10.196;2022-10-31T03:08:28;102029.63;;;8.94;100.00
71666;BME280;59503;53.486;10.196;2022-10-31T03:11:00;102030.25;;;8.91;100.00
71666;BME280;59503;53.486;10.196;2022-10-31T03:16:17;102033.13;;;8.86;100.00
71666;BME280;59503;53.486;10.196;2022-10-31T03:19:00;102036.31;;;8.79;100.00
71666;BME280;59503;53.486;10.196;2022-10-31T03:24:00;102047.63;;;8.72;100.00
71666;BME280;59503;53.486;10.196;2022-10-31T03:26:26;102050.81;;;8.66;100.00
71666;BME280;59503;53.486;10.196;2022-10-31T03:29:05;102042.81;;;8.61;100.00
71666;BME280;59503;53.486;10.196;2022-10-31T03:31:44;102044.09;;;8.55;100.00
71666;BME280;59503;53.486;10.196;2022-10-31T03:34:12;102050.13;;;8.52;100.00
71666;BME280;59503;53.486;10.196;2022-10-31T03:36:39;102058.56;;;8.50;100.00
71666;BME280;59503;53.486;10.196;2022-10-31T03:39:06;102059.38;;;8.51;100.00
71666;BME280;59503;53.486;10.196;2022-10-31T03:41:40;102060.03;;;8.48;100.00
71666;BME280;59503;53.486;10.196;2022-10-31T03:44:11;102062.91;;;8.51;100.00
71666;BME280;59503;53.486;10.196;2022-10-31T03:46:38;102065.13;;;8.49;100.00
71666;BME280;59503;53.486;10.196;2022-10-31T03:49:04;102065.44;;;8.48;100.00
71666;BME280;59503;53.486;10.196;2022-10-31T03:57:08;102085.84;;;8.54;100.00
71666;BME280;59503;53.486;10.196;2022-10-31T03:59:44;102094.78;;;8.54;100.00
71666;BME280;59503;53.486;10.196;2022-10-31T04:02:16;102088.56;;;8.54;100.00
71666;BME280;59503;53.486;10.196;2022-10-31T04:04:44;102093.66;;;8.55;100.00
71666;BME280;59503;53.486;10.196;2022-10-31T04:07:11;102089.03;;;8.47;100.00
71666;BME280;59503;53.486;10.196;2022-10-31T04:09:41;102105.63;;;8.54;100.00
71666;BME280;59503;53.486;10.196;2022-10-31T04:12:12;102094.78;;;8.54;100.00
71666;BME280;59503;53.486;10.196;2022-10-31T04:14:41;102090.94;;;8.55;100.00
71666;BME280;59503;53.486;10.196;2022-10-31T04:17:11;102104.53;;;8.64;100.00
71666;BME280;59503;53.486;10.196;2022-10-31T04:19:37;102108.03;;;8.64;100.00
71666;BME280;59503;53.486;10.196;2022-10-31T04:22:03;102107.25;;;8.64;100.00
71666;BME280;59503;53.486;10.196;2022-10-31T04:24:28;102106.13;;;8.65;100.00
71666;BME280;59503;53.486;10.196;2022-10-31T04:26:54;102092.59;;;8.65;100.00
71666;BME280;59503;53.486;10.196;2022-10-31T04:29:19;102098.00;;;8.65;100.00
71666;BME280;59503;53.486;10.196;2022-10-31T04:31:44;102103.59;;;8.68;100.00
71666;BME280;59503;53.486;10.196;2022-10-31T04:34:10;102103.88;;;8.67;100.00
71666;BME280;59503;53.486;10.196;2022-10-31T04:36:35;102097.84;;;8.61;100.00
71666;BME280;59503;53.486;10.196;2022-10-31T04:39:01;102107.06;;;8.60;100.00
71666;BME280;59503;53.486;10.196;2022-10-31T04:41:26;102108.19;;;8.59;100.00
71666;BME280;59503;53.486;10.196;2022-10-31T04:43:52;102103.72;;;8.55;100.00
71666;BME280;59503;53.486;10.196;2022-10-31T04:46:17;102110.91;;;8.59;100.00
71666;BME280;59503;53.486;10.196;2022-10-31T04:48:42;102114.09;;;8.61;100.00
71666;BME280;59503;53.486;10.196;2022-10-31T04:51:08;102113.28;;;8.61;100.00
71666;BME280;59503;53.486;10.196;2022-10-31T04:53:33;102103.09;;;8.58;100.00
71666;BME280;59503;53.486;10.196;2022-10-31T04:55:59;102107.25;;;8.64;100.00
71666;BME280;59503;53.486;10.196;2022-10-31T04:58:27;102103.25;;;8.61;100.00
71666;BME280;59503;53.486;10.196;2022-10-31T05:00:54;102111.09;;;8.71;100.00
71666;BME280;59503;53.486;10.196;2022-10-31T05:03:20;102107.91;;;8.78;100.00
71666;BME280;59503;53.486;10.196;2022-10-31T05:05:46;102109.66;;;8.82;100.00
71666;BME280;59503;53.486;10.196;2022-10-31T05:08:11;102111.59;;;8.91;100.00
71666;BME280;59503;53.486;10.196;2022-10-31T05:10:37;102116.88;;;8.96;100.00
71666;BME280;59503;53.486;10.196;2022-10-31T05:13:03;102111.00;;;9.02;100.00
71666;BME280;59503;53.486;10.196;2022-10-31T05:15:29;102119.28;;;9.06;100.00
71666;BME280;59503;53.486;10.196;2022-10-31T05:17:56;102119.13;;;9.11;100.00
71666;BME280;59503;53.486;10.196;2022-10-31T05:20:24;102112.75;;;9.15;100.00
71666;BME280;59503;53.486;10.196;2022-10-31T05:22:52;102114.81;;;9.18;100.00
71666;BME280;59503;53.486;10.196;2022-10-31T05:25:19;102122.97;;;9.27;100.00
71666;BME280;59503;53.486;10.196;2022-10-31T05:27:46;102125.53;;;9.32;100.00
71666;BME280;59503;53.486;10.196;2022-10-31T05:30:15;102126.63;;;9.39;100.00
71666;BME280;59503;53.486;10.196;2022-10-31T05:32:43;102118.66;;;9.43;100.00
71666;BME280;59503;53.486;10.196;2022-10-31T05:35:11;102128.72;;;9.51;100.00
71666;BME280;59503;53.486;10.196;2022-10-31T05:37:37;102129.19;;;9.53;100.00
71666;BME280;59503;53.486;10.196;2022-10-31T05:40:04;102123.13;;;9.56;100.00
71666;BME280;59503;53.486;10.196;2022-10-31T05:42:31;102114.81;;;9.61;100.00
71666;BME280;59503;53.486;10.196;2022-10-31T05:44:56;102127.56;;;9.69;100.00
71666;BME280;59503;53.486;10.196;2022-10-31T05:47:22;102125.47;;;9.74;100.00
71666;BME280;59503;53.486;10.196;2022-10-31T05:49:47;102117.16;;;9.79;100.00
71666;BME280;59503;53.486;10.196;2022-10-31T05:52:13;102121.63;;;9.84;100.00
71666;BME280;59503;53.486;10.196;2022-10-31T05:54:39;102118.28;;;9.87;100.00
71666;BME280;59503;53.486;10.196;2022-10-31T05:57:04;102126.91;;;9.89;100.00
71666;BME280;59503;53.486;10.196;2022-10-31T05:59:29;102119.22;;;9.91;100.00
71666;BME280;59503;53.486;10.196;2022-10-31T06:01:55;102116.97;;;9.93;100.00
71666;BME280;59503;53.486;10.196;2022-10-31T06:04:20;102112.34;;;9.93;100.00
71666;BME280;59503;53.486;10.196;2022-10-31T06:06:46;102122.56;;;9.96;100.00
71666;BME280;59503;53.486;10.196;2022-10-31T06:09:11;102123.50;;;10.00;100.00
71666;BME280;59503;53.486;10.196;2022-10-31T06:11:37;102130.88;;;10.09;100.00
71666;BME280;59503;53.486;10.196;2022-10-31T06:14:03;102129.88;;;10.13;100.00
71666;BME280;59503;53.486;10.196;2022-10-31T06:16:28;102129.44;;;10.11;100.00
71666;BME280;59503;53.486;10.196;2022-10-31T06:18:53;102131.16;;;10.16;100.00
71666;BME280;59503;53.486;10.196;2022-10-31T06:21:19;102124.28;;;10.18;100.00
71666;BME280;59503;53.486;10.196;2022-10-31T06:23:44;102140.25;;;10.28;100.00
71666;BME280;59503;53.486;10.196;2022-10-31T06:26:10;102139.59;;;10.31;100.00
71666;BME280;59503;53.486;10.196;2022-10-31T06:28:35;102144.38;;;10.34;100.00
71666;BME280;59503;53.486;10.196;2022-10-31T06:31:01;102149.63;;;10.39;100.00
71666;BME280;59503;53.486;10.196;2022-10-31T06:33:26;102151.69;;;10.42;100.00
71666;BME280;59503;53.486;10.196;2022-10-31T06:35:52;102148.97;;;10.42;100.00
71666;BME280;59503;53.486;10.196;2022-10-31T06:38:17;102168.28;;;10.49;100.00
71666;BME280;59503;53.486;10.196;2022-10-31T06:40:42;102161.41;;;10.52;100.00
71666;BME280;59503;53.486;10.196;2022-10-31T06:43:08;102156.75;;;10.52;100.00
71666;BME280;59503;53.486;10.196;2022-10-31T06:45:34;102162.34;;;10.56;100.00
71666;BME280;59503;53.486;10.196;2022-10-31T06:47:59;102165.88;;;10.56;100.00
71666;BME280;59503;53.486;10.196;2022-10-31T06:50:25;102169.19;;;10.62;100.00
71666;BME280;59503;53.486;10.196;2022-10-31T06:52:52;102173.34;;;10.68;100.00
71666;BME280;59503;53.486;10.196;2022-10-31T06:55:18;102174.59;;;10.70;100.00
71666;BME280;59503;53.486;10.196;2022-10-31T06:57:52;102177.94;;;10.76;100.00
71666;BME280;59503;53.486;10.196;2022-10-31T07:00:19;102171.50;;;10.80;100.00
71666;BME280;59503;53.486;10.196;2022-10-31T07:02:54;102181.09;;;10.86;100.00
71666;BME280;59503;53.486;10.196;2022-10-31T07:05:20;102190.63;;;10.92;100.00
71666;BME280;59503;53.486;10.196;2022-10-31T07:07:45;102197.50;;;10.98;100.00
71666;BME280;59503;53.486;10.196;2022-10-31T07:10:11;102186.63;;;10.98;100.00
71666;BME280;59503;53.486;10.196;2022-10-31T07:12:36;102195.38;;;11.04;100.00
71666;BME280;59503;53.486;10.196;2022-10-31T07:15:02;102190.06;;;11.07;100.00
71666;BME280;59503;53.486;10.196;2022-10-31T07:17:27;102199.31;;;11.15;100.00
71666;BME280;59503;53.486;10.196;2022-10-31T07:19:52;102192.88;;;11.19;100.00
71666;BME280;59503;53.486;10.196;2022-10-31T07:22:18;102193.16;;;11.26;100.00
71666;BME280;59503;53.486;10.196;2022-10-31T07:24:43;102195.50;;;11.37;100.00
71666;BME280;59503;53.486;10.196;2022-10-31T07:27:09;102197.69;;;11.43;100.00
71666;BME280;59503;53.486;10.196;2022-10-31T07:29:34;102212.81;;;11.53;100.00
71666;BME280;59503;53.486;10.196;2022-10-31T07:32:00;102207.63;;;11.60;100.00
71666;BME280;59503;53.486;10.196;2022-10-31T07:34:26;102196.88;;;11.63;100.00
71666;BME280;59503;53.486;10.196;2022-10-31T07:36:52;102208.41;;;11.69;100.00
71666;BME280;59503;53.486;10.196;2022-10-31T07:39:17;102202.09;;;11.77;100.00
71666;BME280;59503;53.486;10.196;2022-10-31T07:41:43;102202.00;;;11.85;100.00
71666;BME280;59503;53.486;10.196;2022-10-31T07:44:08;102211.22;;;11.93;100.00
71666;BME280;59503;53.486;10.196;2022-10-31T07:46:33;102193.53;;;11.99;100.00
71666;BME280;59503;53.486;10.196;2022-10-31T07:48:59;102203.91;;;12.05;100.00
71666;BME280;59503;53.486;10.196;2022-10-31T07:51:24;102210.41;;;12.13;100.00
71666;BME280;59503;53.486;10.196;2022-10-31T07:53:50;102221.75;;;12.15;100.00
71666;BME280;59503;53.486;10.196;2022-10-31T07:56:15;102219.63;;;12.20;100.00
71666;BME280;59503;53.486;10.196;2022-10-31T07:58:41;102212.13;;;12.17;100.00
71666;BME280;59503;53.486;10.196;2022-10-31T08:01:06;102220.22;;;12.26;100.00
71666;BME280;59503;53.486;10.196;2022-10-31T08:03:31;102219.31;;;12.34;100.00
71666;BME280;59503;53.486;10.196;2022-10-31T08:05:57;102218.97;;;12.35;100.00
71666;BME280;59503;53.486;10.196;2022-10-31T08:08:22;102228.34;;;12.46;100.00
71666;BME280;59503;53.486;10.196;2022-10-31T08:10:49;102227.53;;;12.46;100.00
71666;BME280;59503;53.486;10.196;2022-10-31T08:13:15;102223.53;;;12.43;100.00
71666;BME280;59503;53.486;10.196;2022-10-31T08:15:41;102217.97;;;12.52;100.00
71666;BME280;59503;53.486;10.196;2022-10-31T08:18:12;102222.31;;;12.53;100.00
71666;BME280;59503;53.486;10.196;2022-10-31T08:20:38;102217.09;;;12.48;100.00
71666;BME280;59503;53.486;10.196;2022-10-31T08:23:04;102214.78;;;12.50;100.00
71666;BME280;59503;53.486;10.196;2022-10-31T08:25:32;102219.59;;;12.53;100.00
71666;BME280;59503;53.486;10.196;2022-10-31T08:27:58;102232.09;;;12.54;100.00
71666;BME280;59503;53.486;10.196;2022-10-31T08:30:26;102229.34;;;12.54;100.00
71666;BME280;59503;53.486;10.196;2022-10-31T08:33:12;102231.97;;;12.50;100.00
71666;BME280;59503;53.486;10.196;2022-10-31T08:35:38;102229.56;;;12.49;100.00
71666;BME280;59503;53.486;10.196;2022-10-31T08:38:04;102222.06;;;12.46;100.00
71666;BME280;59503;53.486;10.196;2022-10-31T08:40:30;102231.16;;;12.50;100.00
71666;BME280;59503;53.486;10.196;2022-10-31T08:43:04;102237.75;;;12.49;100.00
71666;BME280;59503;53.486;10.196;2022-10-31T08:45:31;102239.34;;;12.50;100.00
71666;BME280;59503;53.486;10.196;2022-10-31T08:48:03;102225.47;;;12.43;100.00
71666;BME280;59503;53.486;10.196;2022-10-31T08:50:30;102217.53;;;12.38;100.00
71666;BME280;59503;53.486;10.196;2022-10-31T08:53:06;102225.91;;;12.45;100.00
71666;BME280;59503;53.486;10.196;2022-10-31T08:55:36;102234.34;;;12.52;100.00
71666;BME280;59503;53.486;10.196;2022-10-31T08:58:04;102234.81;;;12.54;100.00
71666;BME280;59503;53.486;10.196;2022-10-31T09:00:30;102235.06;;;12.61;100.00
71666;BME280;59503;53.486;10.196;2022-10-31T09:03:10;102221.19;;;12.66;100.00
71666;BME280;59503;53.486;10.196;2022-10-31T09:05:36;102207.78;;;12.61;100.00
71666;BME280;59503;53.486;10.196;2022-10-31T09:08:02;102212.44;;;12.73;100.00
71666;BME280;59503;53.486;10.196;2022-10-31T09:10:29;102208.47;;;12.82;100.00
71666;BME280;59503;53.486;10.196;2022-10-31T09:13:09;102217.34;;;12.91;100.00
71666;BME280;59503;53.486;10.196;2022-10-31T09:15:36;102216.41;;;12.99;100.00
71666;BME280;59503;53.486;10.196;2022-10-31T09:18:04;102210.19;;;13.11;100.00
71666;BME280;59503;53.486;10.196;2022-10-31T09:20:31;102211.91;;;13.15;100.00
71666;BME280;59503;53.486;10.196;2022-10-31T09:22:58;102212.34;;;13.17;100.00
71666;BME280;59503;53.486;10.196;2022-10-31T09:25:24;102225.66;;;13.19;100.00
71666;BME280;59503;53.486;10.196;2022-10-31T09:27:50;102208.59;;;13.22;100.00
71666;BME280;59503;53.486;10.196;2022-10-31T09:30:15;102216.09;;;13.25;100.00
71666;BME280;59503;53.486;10.196;2022-10-31T09:32:40;102210.06;;;13.19;100.00
71666;BME280;59503;53.486;10.196;2022-10-31T09:35:06;102207.78;;;13.21;100.00
71666;BME280;59503;53.486;10.196;2022-10-31T09:37:31;102203.13;;;13.22;100.00
71666;BME280;59503;53.486;10.196;2022-10-31T09:39:57;102203.13;;;13.22;100.00
71666;BME280;59503;53.486;10.196;2022-10-31T09:45:11;102206.22;;;13.20;100.00
71666;BME280;59503;53.486;10.196;2022-10-31T09:50:34;102205.63;;;13.27;100.00
71666;BME280;59503;53.486;10.196;2022-10-31T09:56:00;102221.66;;;13.28;100.00
71666;BME280;59503;53.486;10.196;2022-10-31T09:58:28;102223.59;;;13.28;100.00
71666;BME280;59503;53.486;10.196;2022-10-31T10:00:58;102224.41;;;13.28;100.00
71666;BME280;59503;53.486;10.196;2022-10-31T10:03:40;102218.94;;;13.28;100.00
71666;BME280;59503;53.486;10.196;2022-10-31T10:06:14;102222.91;;;13.31;100.00
71666;BME280;59503;53.486;10.196;2022-10-31T10:08:41;102238.06;;;13.16;100.00
71666;BME280;59503;53.486;10.196;2022-10-31T10:14:31;102240.22;;;13.23;100.00
71666;BME280;59503;53.486;10.196;2022-10-31T10:22:32;102237.13;;;13.36;100.00
71666;BME280;59503;53.486;10.196;2022-10-31T10:28:10;102235.31;;;13.40;100.00
71666;BME280;59503;53.486;10.196;2022-10-31T10:30:42;102237.25;;;13.40;100.00
71666;BME280;59503;53.486;10.196;2022-10-31T10:33:20;102231.78;;;13.40;100.00
71666;BME280;59503;53.486;10.196;2022-10-31T10:35:59;102221.91;;;13.35;100.00
71666;BME280;59503;53.486;10.196;2022-10-31T10:38:39;102217.56;;;13.34;100.00
71666;BME280;59503;53.486;10.196;2022-10-31T10:41:13;102214.22;;;13.41;100.00
71666;BME280;59503;53.486;10.196;2022-10-31T10:43:40;102216.94;;;13.53;100.00
71666;BME280;59503;53.486;10.196;2022-10-31T10:59:55;102202.50;;;13.80;100.00
71666;BME280;59503;53.486;10.196;2022-10-31T11:02:24;102196.06;;;13.73;100.00
71666;BME280;59503;53.486;10.196;2022-10-31T11:05:00;102210.13;;;13.87;100.00
71666;BME280;59503;53.486;10.196;2022-10-31T11:07:38;102205.19;;;13.92;100.00
71666;BME280;59503;53.486;10.196;2022-10-31T11:10:12;102201.88;;;13.99;100.00
71666;BME280;59503;53.486;10.196;2022-10-31T11:12:43;102207.53;;;14.06;100.00
71666;BME280;59503;53.486;10.196;2022-10-31T11:15:28;102213.97;;;13.98;100.00
71666;BME280;59503;53.486;10.196;2022-10-31T11:17:57;102208.91;;;14.00;100.00
71666;BME280;59503;53.486;10.196;2022-10-31T11:23:05;102210.25;;;14.06;100.00
71666;BME280;59503;53.486;10.196;2022-10-31T11:25:30;102207.97;;;14.08;100.00
71666;BME280;59503;53.486;10.196;2022-10-31T11:28:08;102190.50;;;14.12;100.00
71666;BME280;59503;53.486;10.196;2022-10-31T11:30:57;102192.44;;;14.12;100.00
71666;BME280;59503;53.486;10.196;2022-10-31T11:35:52;102182.41;;;14.16;100.00
71666;BME280;59503;53.486;10.196;2022-10-31T11:38:20;102183.53;;;14.15;100.00
71666;BME280;59503;53.486;10.196;2022-10-31T11:40:59;102186.69;;;14.29;100.00
71666;BME280;59503;53.486;10.196;2022-10-31T11:43:25;102188.25;;;14.30;100.00
71666;BME280;59503;53.486;10.196;2022-10-31T11:45:52;102195.00;;;14.32;100.00
71666;BME280;59503;53.486;10.196;2022-10-31T11:48:21;102193.53;;;14.23;100.00
71666;BME280;59503;53.486;10.196;2022-10-31T11:50:53;102182.41;;;14.16;100.00
71666;BME280;59503;53.486;10.196;2022-10-31T11:53:30;102180.13;;;14.18;100.00
71666;BME280;59503;53.486;10.196;2022-10-31T11:56:12;102182.78;;;14.30;100.00
71666;BME280;59503;53.486;10.196;2022-10-31T11:58:38;102179.50;;;14.24;100.00
71666;BME280;59503;53.486;10.196;2022-10-31T12:01:24;102178.69;;;14.08;100.00
71666;BME280;59503;53.486;10.196;2022-10-31T12:04:01;102174.16;;;14.00;100.00
71666;BME280;59503;53.486;10.196;2022-10-31T12:06:33;102169.56;;;13.89;100.00
71666;BME280;59503;53.486;10.196;2022-10-31T12:08:59;102171.28;;;13.81;100.00
71666;BME280;59503;53.486;10.196;2022-10-31T12:17:05;102181.44;;;13.81;100.00
71666;BME280;59503;53.486;10.196;2022-10-31T12:25:12;102171.91;;;14.18;100.00
71666;BME280;59503;53.486;10.196;2022-10-31T12:30:25;102167.03;;;13.96;100.00
71666;BME280;59503;53.486;10.196;2022-10-31T12:36:02;102169.44;;;13.57;100.00
71666;BME280;59503;53.486;10.196;2022-10-31T12:39:33;102160.53;;;13.73;100.00
71666;BME280;59503;53.486;10.196;2022-10-31T12:44:59;102164.53;;;13.63;100.00
71666;BME280;59503;53.486;10.196;2022-10-31T12:58:20;102137.81;;;13.84;100.00
71666;BME280;59503;53.486;10.196;2022-10-31T13:00:50;102141.06;;;13.74;100.00
71666;BME280;59503;53.486;10.196;2022-10-31T13:03:30;102135.84;;;13.85;100.00
71666;BME280;59503;53.486;10.196;2022-10-31T13:06:04;102139.69;;;13.96;100.00
71666;BME280;59503;53.486;10.196;2022-10-31T13:08:47;102126.47;;;13.98;100.00
71666;BME280;59503;53.486;10.196;2022-10-31T13:11:22;102128.03;;;13.99;100.00
71666;BME280;59503;53.486;10.196;2022-10-31T13:14:00;102132.09;;;14.05;100.00
71666;BME280;59503;53.486;10.196;2022-10-31T13:16:38;102128.69;;;14.08;100.00
71666;BME280;59503;53.486;10.196;2022-10-31T13:19:18;102129.09;;;13.94;100.00
71666;BME280;59503;53.486;10.196;2022-10-31T13:21:55;102117.69;;;13.77;100.00
71666;BME280;59503;53.486;10.196;2022-10-31T13:24:36;102125.47;;;13.62;100.00
71666;BME280;59503;53.486;10.196;2022-10-31T13:27:13;102114.81;;;13.57;100.00
71666;BME280;59503;53.486;10.196;2022-10-31T13:29:48;102117.94;;;13.71;100.00
71666;BME280;59503;53.486;10.196;2022-10-31T13:32:15;102118.38;;;13.73;100.00
71666;BME280;59503;53.486;10.196;2022-10-31T13:34:47;102115.50;;;13.82;100.00
71666;BME280;59503;53.486;10.196;2022-10-31T13:37:34;102116.81;;;13.88;100.00
71666;BME280;59503;53.486;10.196;2022-10-31T13:45:19;102113.63;;;13.86;100.00
71666;BME280;59503;53.486;10.196;2022-10-31T13:50:55;102094.94;;;13.88;100.00
71666;BME280;59503;53.486;10.196;2022-10-31T13:53:22;102087.81;;;13.84;100.00
71666;BME280;59503;53.486;10.196;2022-10-31T13:55:50;102088.31;;;13.73;100.00
71666;BME280;59503;53.486;10.196;2022-10-31T13:58:29;102089.00;;;13.55;100.00
71666;BME280;59503;53.486;10.196;2022-10-31T14:01:18;102074.94;;;13.41;100.00
71666;BME280;59503;53.486;10.196;2022-10-31T14:03:47;102068.50;;;13.33;100.00
71666;BME280;59503;53.486;10.196;2022-10-31T14:06:14;102066.00;;;13.28;100.00
71666;BME280;59503;53.486;10.196;2022-10-31T14:08:48;102064.28;;;13.24;100.00
71666;BME280;59503;53.486;10.196;2022-10-31T14:11:36;102061.28;;;13.13;100.00
71666;BME280;59503;53.486;10.196;2022-10-31T14:14:01;102051.31;;;13.05;100.00
71666;BME280;59503;53.486;10.196;2022-10-31T14:16:29;102060.13;;;13.14;100.00
71666;BME280;59503;53.486;10.196;2022-10-31T14:19:02;102045.91;;;13.09;100.00
71666;BME280;59503;53.486;10.196;2022-10-31T14:21:35;102045.03;;;13.05;100.00
71666;BME280;59503;53.486;10.196;2022-10-31T14:29:46;102037.88;;;13.00;100.00
71666;BME280;59503;53.486;10.196;2022-10-31T14:34:41;102035.88;;;12.85;100.00
71666;BME280;59503;53.486;10.196;2022-10-31T14:46:00;102008.25;;;12.75;100.00
71666;BME280;59503;53.486;10.196;2022-10-31T14:50:57;102004.41;;;12.64;100.00
71666;BME280;59503;53.486;10.196;2022-10-31T14:53:31;102000.91;;;12.63;100.00
71666;BME280;59503;53.486;10.196;2022-10-31T14:55:59;101985.22;;;12.60;100.00
71666;BME280;59503;53.486;10.196;2022-10-31T14:58:38;101989.53;;;12.61;100.00
71666;BME280;59503;53.486;10.196;2022-10-31T15:01:05;101979.31;;;12.58;100.00